createdAt,value
2022-09-28T00:01:28.749Z,99852.97
2022-09-28T00:04:00.318Z,99850.50
2022-09-28T00:06:30.583Z,99854.84
2022-09-28T00:09:00.815Z,99848.38
2022-09-28T00:15:25.313Z,99854.47
2022-09-28T00:17:55.142Z,99846.41
2022-09-28T00:20:23.878Z,99853.03
2022-09-28T00:22:52.995Z,99853.03
2022-09-28T00:25:22.320Z,99850.44
2022-09-28T00:27:51.606Z,99851.56
2022-09-28T00:30:20.354Z,99852.06
2022-09-28T00:32:48.543Z,99838.81
2022-09-28T00:35:16.909Z,99835.28
2022-09-28T00:37:46.067Z,99832.66
2022-09-28T00:40:14.373Z,99833.97
2022-09-28T00:42:43.161Z,99835.13
2022-09-28T00:45:13.361Z,99831.16
2022-09-28T00:47:54.895Z,99830.84
2022-09-28T00:50:35.743Z,99822.38
2022-09-28T00:53:17.898Z,99824.25
2022-09-28T00:55:49.181Z,99824.59
2022-09-28T00:58:33.911Z,99824.75
2022-09-28T01:01:03.774Z,99827.22
2022-09-28T01:03:34.131Z,99821.78
2022-09-28T01:06:05.314Z,99817.19
2022-09-28T01:08:34.838Z,99818.97
2022-09-28T01:11:11.430Z,99826.63
2022-09-28T01:13:42.197Z,99832.16
2022-09-28T01:16:24.688Z,99836.34
2022-09-28T01:19:05.686Z,99839.91
2022-09-28T01:22:00.098Z,99838.25
2022-09-28T01:24:45.651Z,99834.97
2022-09-28T01:27:41.231Z,99836.59
2022-09-28T01:30:23.847Z,99834.47
2022-09-28T01:33:04.123Z,99848.28
2022-09-28T01:35:38.256Z,99843.03
2022-09-28T01:38:13.681Z,99838.25
2022-09-28T01:40:45.022Z,99837.69
2022-09-28T01:43:27.746Z,99839.91
2022-09-28T01:46:10.091Z,99841.06
2022-09-28T01:49:05.641Z,99842.47
2022-09-28T01:51:57.102Z,99845.41
2022-09-28T01:58:15.050Z,99842.47
2022-09-28T02:00:53.461Z,99846.84
2022-09-28T02:03:28.023Z,99845.66
2022-09-28T02:06:08.583Z,99840.22
2022-09-28T02:08:51.289Z,99844.84
2022-09-28T02:11:23.115Z,99839.41
2022-09-28T02:14:10.457Z,99829.13
2022-09-28T02:16:55.417Z,99836.22
2022-09-28T02:19:32.551Z,99849.78
2022-09-28T02:22:05.412Z,99846.84
2022-09-28T02:24:51.155Z,99843.88
2022-09-28T02:27:38.424Z,99852.50
2022-09-28T02:30:10.814Z,99848.81
2022-09-28T02:32:43.504Z,99847.16
2022-09-28T02:35:15.602Z,99848.03
2022-09-28T02:43:18.934Z,99845.97
2022-09-28T02:46:05.735Z,99850.19
2022-09-28T02:49:24.368Z,99844.75
2022-09-28T02:52:09.089Z,99853.16
2022-09-28T02:54:59.577Z,99846.13
2022-09-28T02:57:49.965Z,99838.66
2022-09-28T03:00:23.580Z,99849.88
2022-09-28T03:03:05.996Z,99836.09
2022-09-28T03:05:59.195Z,99843.19
2022-09-28T03:08:46.243Z,99837.28
2022-09-28T03:11:32.214Z,99841.63
2022-09-28T03:14:02.161Z,99837.94
2022-09-28T03:16:32.485Z,99837.84
2022-09-28T03:19:00.842Z,99842.22
2022-09-28T03:21:29.006Z,99838.34
2022-09-28T03:23:57.946Z,99835.47
2022-09-28T03:26:25.761Z,99833.31
2022-09-28T03:28:54.197Z,99834.13
2022-09-28T03:31:24.742Z,99828.69
2022-09-28T03:33:53.351Z,99826.50
2022-09-28T03:36:21.616Z,99833.66
2022-09-28T03:38:51.749Z,99835.47
2022-09-28T03:41:20.744Z,99837.59
2022-09-28T03:43:49.932Z,99838.25
2022-09-28T03:46:17.956Z,99837.44
2022-09-28T03:48:48.596Z,99834.13
2022-09-28T03:51:32.478Z,99833.31
2022-09-28T03:54:04.338Z,99840.09
2022-09-28T03:56:32.886Z,99848.81
2022-09-28T03:59:04.111Z,99846.00
2022-09-28T04:01:33.850Z,99850.13
2022-09-28T04:04:03.517Z,99852.25
2022-09-28T04:06:35.771Z,99854.25
2022-09-28T04:09:05.272Z,99866.75
2022-09-28T04:11:53.165Z,99871.03
2022-09-28T04:14:25.062Z,99861.16
2022-09-28T04:16:56.330Z,99855.22
2022-09-28T04:19:28.116Z,99861.16
2022-09-28T04:21:59.608Z,99852.34
2022-09-28T04:24:29.682Z,99864.34
2022-09-28T04:27:20.353Z,99864.19
2022-09-28T04:29:48.438Z,99851.28
2022-09-28T04:35:13.604Z,99858.19
2022-09-28T04:37:43.444Z,99852.41
2022-09-28T04:40:16.067Z,99839.31
2022-09-28T04:42:46.527Z,99848.13
2022-09-28T04:45:16.036Z,99838.34
2022-09-28T04:47:45.894Z,99846.84
2022-09-28T04:50:20.227Z,99855.88
2022-09-28T04:52:51.962Z,99859.69
2022-09-28T04:55:25.974Z,99868.25
2022-09-28T04:57:54.267Z,99861.00
2022-09-28T05:00:22.510Z,99863.72
2022-09-28T05:02:52.020Z,99871.94
2022-09-28T05:08:07.518Z,99881.16
2022-09-28T05:13:29.372Z,99880.44
2022-09-28T05:16:22.280Z,99878.94
2022-09-28T05:18:56.207Z,99879.69
2022-09-28T05:24:19.160Z,99867.41
2022-09-28T05:27:01.946Z,99868.97
2022-09-28T05:29:35.897Z,99869.41
2022-09-28T05:32:05.547Z,99861.31
2022-09-28T05:37:31.241Z,99859.34
2022-09-28T05:39:59.951Z,99860.19
2022-09-28T05:42:49.208Z,99853.25
2022-09-28T05:45:28.616Z,99855.72
2022-09-28T05:47:58.776Z,99859.31
2022-09-28T05:50:27.834Z,99856.88
2022-09-28T05:53:02.591Z,99848.13
2022-09-28T05:55:38.623Z,99845.97
2022-09-28T05:58:16.311Z,99844.97
2022-09-28T06:00:45.308Z,99852.72
2022-09-28T06:03:15.771Z,99856.56
2022-09-28T06:05:44.231Z,99847.91
2022-09-28T06:08:15.530Z,99853.34
2022-09-28T06:10:45.653Z,99863.81
2022-09-28T06:13:16.219Z,99862.41
2022-09-28T06:15:47.195Z,99863.28
2022-09-28T06:18:19.901Z,99866.81
2022-09-28T06:20:51.452Z,99873.09
2022-09-28T06:23:19.683Z,99876.88
2022-09-28T06:25:51.042Z,99882.56
2022-09-28T06:28:19.079Z,99879.59
2022-09-28T06:30:48.513Z,99879.03
2022-09-28T06:33:16.936Z,99885.56
2022-09-28T06:35:44.956Z,99881.81
2022-09-28T06:38:12.790Z,99878.03
2022-09-28T06:40:43.139Z,99878.53
2022-09-28T06:43:17.433Z,99872.34
2022-09-28T06:45:51.935Z,99873.66
2022-09-28T06:48:20.122Z,99886.53
2022-09-28T06:50:50.786Z,99888.41
2022-09-28T06:53:19.755Z,99895.25
2022-09-28T06:55:49.476Z,99896.13
2022-09-28T06:58:20.583Z,99907.09
2022-09-28T07:00:52.639Z,99901.91
2022-09-28T07:06:12.580Z,99897.19
2022-09-28T07:08:40.440Z,99899.44
2022-09-28T07:11:09.058Z,99899.44
2022-09-28T07:13:53.710Z,99902.94
2022-09-28T07:16:26.773Z,99899.94
2022-09-28T07:18:57.220Z,99902.59
2022-09-28T07:21:30.295Z,99893.16
2022-09-28T07:24:00.659Z,99895.13
2022-09-28T07:26:28.683Z,99898.34
2022-09-28T07:28:57.564Z,99900.50
2022-09-28T07:31:25.717Z,99899.50
2022-09-28T07:33:54.535Z,99902.41
2022-09-28T07:36:24.207Z,99894.69
2022-09-28T07:38:52.316Z,99889.81
2022-09-28T07:41:32.855Z,99891.75
2022-09-28T07:44:06.341Z,99884.13
2022-09-28T07:46:36.243Z,99895.31
2022-09-28T07:49:08.486Z,99895.84
2022-09-28T07:51:39.873Z,99888.53
2022-09-28T07:54:08.684Z,99896.13
2022-09-28T07:56:38.293Z,99890.06
2022-09-28T07:59:06.659Z,99886.94
2022-09-28T08:01:34.327Z,99887.75
2022-09-28T08:04:02.460Z,99877.44
2022-09-28T08:06:30.601Z,99877.91
2022-09-28T08:09:00.144Z,99867.03
2022-09-28T08:11:27.994Z,99874.69
2022-09-28T08:13:56.866Z,99861.63
2022-09-28T08:16:25.818Z,99865.50
2022-09-28T08:18:57.346Z,99860.69
2022-09-28T08:21:44.065Z,99855.09
2022-09-28T08:24:14.110Z,99855.63
2022-09-28T08:26:44.814Z,99858.34
2022-09-28T08:29:12.881Z,99882.91
2022-09-28T08:31:42.655Z,99872.78
2022-09-28T08:34:10.986Z,99850.75
2022-09-28T08:36:39.074Z,99827.38
2022-09-28T08:39:07.537Z,99839.94
2022-09-28T08:41:53.437Z,99838.03
2022-09-28T08:44:25.198Z,99835.13
2022-09-28T08:47:04.124Z,99830.88
2022-09-28T08:49:45.593Z,99827.00
2022-09-28T08:52:23.769Z,99835.16
2022-09-28T08:55:03.060Z,99849.38
2022-09-28T08:57:38.590Z,99861.19
2022-09-28T09:00:11.562Z,99863.16
2022-09-28T09:02:42.556Z,99862.72
2022-09-28T09:05:15.016Z,99867.03
2022-09-28T09:08:18.514Z,99867.09
2022-09-28T09:11:16.247Z,99886.97
2022-09-28T09:14:09.649Z,99878.56
2022-09-28T09:17:00.287Z,99879.59
2022-09-28T09:20:02.802Z,99885.31
2022-09-28T09:22:39.155Z,99878.41
2022-09-28T09:25:18.654Z,99879.03
2022-09-28T09:27:49.868Z,99872.50
2022-09-28T09:30:22.472Z,99861.53
2022-09-28T09:33:05.855Z,99867.16
2022-09-28T09:35:37.935Z,99880.13
2022-09-28T09:38:25.344Z,99870.94
2022-09-28T09:41:09.302Z,99865.75
2022-09-28T09:44:06.699Z,99877.09
2022-09-28T09:46:52.841Z,99874.44
2022-09-28T09:49:37.053Z,99865.47
2022-09-28T09:55:29.845Z,99860.91
2022-09-28T09:58:10.641Z,99878.19
2022-09-28T10:00:43.776Z,99871.94
2022-09-28T10:03:24.517Z,99874.63
2022-09-28T10:06:15.646Z,99883.91
2022-09-28T10:08:53.563Z,99878.13
2022-09-28T10:11:32.626Z,99875.13
2022-09-28T10:14:01.523Z,99869.91
2022-09-28T10:17:07.867Z,99871.28
2022-09-28T10:19:44.274Z,99878.16
2022-09-28T10:22:24.597Z,99870.50
2022-09-28T10:24:58.702Z,99875.38
2022-09-28T10:27:34.081Z,99880.09
2022-09-28T10:30:08.793Z,99883.41
2022-09-28T10:32:48.582Z,99880.09
2022-09-28T10:35:19.760Z,99874.41
2022-09-28T10:37:48.631Z,99878.47
2022-09-28T10:40:47.274Z,99881.75
2022-09-28T10:43:30.884Z,99880.69
2022-09-28T10:46:21.504Z,99878.75
2022-09-28T10:49:17.466Z,99877.34
2022-09-28T10:51:49.857Z,99881.41
2022-09-28T10:54:29.713Z,99874.03
2022-09-28T11:06:08.986Z,99872.84
2022-09-28T11:08:51.027Z,99870.34
2022-09-28T11:11:22.418Z,99885.59
2022-09-28T11:13:53.836Z,99877.16
2022-09-28T11:16:30.396Z,99886.41
2022-09-28T11:19:10.239Z,99886.41
2022-09-28T11:21:44.386Z,99888.53
2022-09-28T11:24:19.845Z,99890.25
2022-09-28T11:29:59.704Z,99891.31
2022-09-28T11:32:43.882Z,99893.56
2022-09-28T11:35:23.311Z,99887.59
2022-09-28T11:38:00.579Z,99886.75
2022-09-28T11:40:31.326Z,99891.94
2022-09-28T11:42:59.906Z,99887.34
2022-09-28T11:45:53.021Z,99886.03
2022-09-28T11:48:46.404Z,99887.59
2022-09-28T11:51:25.474Z,99886.53
2022-09-28T11:53:59.889Z,99876.75
2022-09-28T11:56:42.695Z,99879.47
2022-09-28T11:59:59.144Z,99881.16
2022-09-28T12:02:42.960Z,99887.75
2022-09-28T12:05:22.499Z,99882.81
2022-09-28T12:08:04.242Z,99882.00
2022-09-28T12:11:04.433Z,99888.81
2022-09-28T12:13:40.366Z,99883.88
2022-09-28T12:19:21.059Z,99874.88
2022-09-28T12:21:57.240Z,99890.44
2022-09-28T12:24:37.802Z,99897.00
2022-09-28T12:27:45.611Z,99894.53
2022-09-28T12:30:20.599Z,99889.88
2022-09-28T12:33:01.831Z,99886.06
2022-09-28T12:35:41.158Z,99887.72
2022-09-28T12:42:03.086Z,99895.88
2022-09-28T12:45:09.510Z,99889.75
2022-09-28T12:47:41.855Z,99891.94
2022-09-28T12:50:39.328Z,99887.03
2022-09-28T12:53:34.028Z,99888.13
2022-09-28T12:56:28.783Z,99899.03
2022-09-28T12:59:30.401Z,99904.16
2022-09-28T13:02:16.105Z,99903.31
2022-09-28T13:05:04.055Z,99900.63
2022-09-28T13:10:36.319Z,99901.50
2022-09-28T13:13:30.518Z,99897.66
2022-09-28T13:16:14.142Z,99897.38
2022-09-28T13:18:59.784Z,99898.06
2022-09-28T13:21:46.315Z,99899.47
2022-09-28T13:24:32.811Z,99901.91
2022-09-28T13:27:13.680Z,99899.34
2022-09-28T13:29:43.580Z,99902.41
2022-09-28T13:32:13.682Z,99910.63
2022-09-28T13:34:48.937Z,99911.44
2022-09-28T13:37:26.447Z,99907.06
2022-09-28T13:40:12.483Z,99916.34
2022-09-28T13:42:45.856Z,99925.09
2022-09-28T13:45:24.668Z,99934.31
2022-09-28T13:48:22.121Z,99939.19
2022-09-28T13:51:36.735Z,99932.09
2022-09-28T13:54:41.772Z,99929.34
2022-09-28T13:57:30.743Z,99929.34
2022-09-28T14:00:11.929Z,99929.03
2022-09-28T14:02:56.761Z,99930.31
2022-09-28T14:05:45.107Z,99934.38
2022-09-28T14:08:38.660Z,99940.06
2022-09-28T14:11:29.229Z,99929.94
2022-09-28T14:14:00.561Z,99934.78
2022-09-28T14:16:34.694Z,99935.03
2022-09-28T14:19:33.410Z,99926.88
2022-09-28T14:23:05.985Z,99932.84
2022-09-28T14:33:00.003Z,99928.94
2022-09-28T14:39:09.311Z,99930.34
2022-09-28T14:41:45.150Z,99933.34
2022-09-28T14:44:19.237Z,99931.69
2022-09-28T14:47:33.815Z,99931.63
2022-09-28T14:50:24.406Z,99932.72
2022-09-28T14:53:04.583Z,99933.19
2022-09-28T14:55:41.298Z,99936.72
2022-09-28T14:58:23.703Z,99937.97
2022-09-28T15:06:55.163Z,99936.81
2022-09-28T15:09:37.021Z,99942.03
2022-09-28T15:12:33.550Z,99934.03
2022-09-28T15:15:15.444Z,99938.56
2022-09-28T15:18:15.260Z,99929.25
2022-09-28T15:20:50.192Z,99931.94
2022-09-28T15:23:33.163Z,99931.59
2022-09-28T15:26:04.789Z,99926.69
2022-09-28T15:28:45.368Z,99938.13
2022-09-28T15:31:23.112Z,99933.19
2022-09-28T15:34:09.771Z,99931.75
2022-09-28T15:44:04.974Z,99963.66
2022-09-28T15:46:50.403Z,99965.00
2022-09-28T16:20:44.383Z,99993.41
2022-09-28T16:23:34.707Z,99994.16
2022-09-28T16:26:10.012Z,100001.25
2022-09-28T16:31:34.942Z,99999.41
2022-09-28T16:34:20.327Z,100006.25
2022-09-28T16:36:51.469Z,100005.28
2022-09-28T16:39:25.135Z,100002.66
2022-09-28T16:42:16.654Z,100010.56
2022-09-28T16:44:46.405Z,100005.06
2022-09-28T16:47:18.948Z,100009.56
2022-09-28T16:53:11.771Z,100009.78
2022-09-28T16:55:42.482Z,100011.66
2022-09-28T17:03:57.553Z,100021.00
2022-09-28T17:06:28.744Z,100023.72
2022-09-28T17:09:00.819Z,100039.41
2022-09-28T17:11:29.983Z,100043.31
2022-09-28T17:14:05.319Z,100044.19
2022-09-28T17:17:06.128Z,100054.94
2022-09-28T17:19:29.334Z,100049.72
2022-09-28T17:22:04.090Z,100051.28
2022-09-28T17:27:29.538Z,100059.56
2022-09-28T17:32:51.987Z,100050.56
2022-09-28T17:51:19.828Z,100048.00
2022-09-28T18:02:48.461Z,100061.13
2022-09-28T18:05:25.827Z,100064.34
2022-09-28T18:08:01.779Z,100073.34
2022-09-28T18:13:52.634Z,100079.53
2022-09-28T18:17:00.738Z,100082.66
2022-09-28T18:19:54.632Z,100085.06
2022-09-28T18:22:28.075Z,100090.66
2022-09-28T18:25:21.314Z,100091.81
2022-09-28T18:27:59.780Z,100090.75
2022-09-28T18:33:29.022Z,100096.09
2022-09-28T18:36:23.181Z,100087.34
2022-09-28T18:38:58.097Z,100088.16
2022-09-28T18:41:29.072Z,100089.50
2022-09-28T18:44:04.538Z,100089.97
2022-09-28T18:46:40.102Z,100093.28
2022-09-28T18:49:07.752Z,100098.22
2022-09-28T18:51:36.144Z,100099.31
2022-09-28T18:54:07.882Z,100091.88
2022-09-28T18:56:37.550Z,100093.75
2022-09-28T18:59:11.280Z,100100.19
2022-09-28T19:01:42.123Z,100100.19
2022-09-28T19:04:11.530Z,100089.81
2022-09-28T19:06:44.875Z,100098.44
2022-09-28T19:09:13.398Z,100095.97
2022-09-28T19:11:50.549Z,100097.88
2022-09-28T19:14:18.474Z,100100.69
2022-09-28T19:16:46.400Z,100104.00
2022-09-28T19:19:17.120Z,100108.84
2022-09-28T19:21:45.338Z,100121.78
2022-09-28T19:24:18.618Z,100117.91
2022-09-28T19:26:47.884Z,100121.22
2022-09-28T19:29:16.376Z,100132.78
2022-09-28T19:31:44.146Z,100135.75
2022-09-28T19:34:14.255Z,100128.78
2022-09-28T19:36:46.035Z,100131.50
2022-09-28T19:39:15.464Z,100135.41
2022-09-28T19:41:45.878Z,100143.47
2022-09-28T19:44:27.029Z,100147.97
2022-09-28T19:46:57.782Z,100154.97
2022-09-28T19:49:27.692Z,100162.53
2022-09-28T19:52:12.253Z,100162.91
2022-09-28T19:54:41.449Z,100161.16
2022-09-28T19:57:09.498Z,100169.41
2022-09-28T19:59:38.076Z,100166.59
2022-09-28T20:02:08.343Z,100179.59
2022-09-28T20:04:37.245Z,100182.22
2022-09-28T20:07:05.482Z,100184.34
2022-09-28T20:09:37.138Z,100183.88
2022-09-28T20:12:06.178Z,100194.88
2022-09-28T20:14:38.022Z,100197.72
2022-09-28T20:17:09.438Z,100187.69
2022-09-28T20:19:37.468Z,100192.84
2022-09-28T20:22:05.894Z,100187.91
2022-09-28T20:24:33.758Z,100197.13
2022-09-28T20:27:04.372Z,100196.66
2022-09-28T20:29:33.673Z,100195.72
2022-09-28T20:32:04.544Z,100187.44
2022-09-28T20:34:40.061Z,100180.47
2022-09-28T20:37:09.992Z,100192.50
2022-09-28T20:39:41.543Z,100191.34
2022-09-28T20:42:14.447Z,100196.31
2022-09-28T20:44:43.613Z,100190.41
2022-09-28T20:47:12.535Z,100188.59
2022-09-28T20:49:40.874Z,100197.78
2022-09-28T20:52:08.975Z,100196.03
2022-09-28T20:54:38.277Z,100197.09
2022-09-28T20:57:17.658Z,100197.19
2022-09-28T20:59:54.347Z,100201.94
2022-09-28T21:02:33.952Z,100210.53
2022-09-28T21:05:05.043Z,100202.03
2022-09-28T21:07:48.217Z,100205.47
2022-09-28T21:10:17.000Z,100211.97
2022-09-28T21:12:55.730Z,100223.97
2022-09-28T21:18:23.198Z,100232.94
2022-09-28T21:20:53.889Z,100228.34
2022-09-28T21:23:25.034Z,100233.78
2022-09-28T21:26:29.121Z,100238.97
2022-09-28T21:29:16.284Z,100246.16
2022-09-28T21:46:34.912Z,100273.06
2022-09-28T21:49:26.658Z,100277.44
2022-09-28T21:51:55.548Z,100285.59
2022-09-28T21:54:25.158Z,100285.88
2022-09-28T21:57:01.402Z,100287.97
2022-09-28T21:59:35.854Z,100280.91
2022-09-28T22:02:19.013Z,100285.13
2022-09-28T22:04:46.862Z,100287.22
2022-09-28T22:07:26.064Z,100292.22
2022-09-28T22:10:14.495Z,100294.09
2022-09-28T22:12:46.189Z,100295.38
2022-09-28T22:15:18.603Z,100298.78
2022-09-28T22:17:48.677Z,100293.09
2022-09-28T22:20:30.811Z,100303.25
2022-09-28T22:23:02.652Z,100304.31
2022-09-28T22:25:33.507Z,100307.03
2022-09-28T22:28:10.851Z,100296.63
2022-09-28T22:30:43.091Z,100307.94
2022-09-28T22:33:14.405Z,100314.56
2022-09-28T22:38:35.981Z,100307.94
2022-09-28T22:41:06.556Z,100316.91
2022-09-28T22:43:37.845Z,100323.38
2022-09-28T22:46:12.434Z,100324.72
2022-09-28T22:48:43.832Z,100320.91
2022-09-28T22:51:14.355Z,100325.97
2022-09-28T22:53:44.877Z,100313.84
2022-09-28T22:56:18.416Z,100327.31
2022-09-28T22:58:48.100Z,100331.75
2022-09-28T23:01:21.919Z,100323.28
2022-09-28T23:03:53.456Z,100326.81
2022-09-28T23:06:28.406Z,100325.16
2022-09-28T23:09:13.568Z,100324.19
2022-09-28T23:11:42.207Z,100328.53
2022-09-28T23:14:11.522Z,100324.84
2022-09-28T23:16:40.640Z,100336.19
2022-09-28T23:19:14.184Z,100337.13
2022-09-28T23:21:44.373Z,100341.22
2022-09-28T23:24:14.918Z,100345.22
2022-09-28T23:26:45.375Z,100342.72
2022-09-28T23:29:15.868Z,100341.75
2022-09-28T23:31:46.115Z,100344.94
2022-09-28T23:34:16.255Z,100348.09
2022-09-28T23:36:46.063Z,100347.47
2022-09-28T23:39:14.649Z,100355.19
2022-09-28T23:41:46.151Z,100350.19
2022-09-28T23:44:14.814Z,100357.72
2022-09-28T23:46:44.885Z,100353.34
2022-09-28T23:49:16.312Z,100364.81
2022-09-28T23:51:45.606Z,100368.66
2022-09-28T23:54:14.588Z,100372.88
2022-09-28T23:56:43.886Z,100356.84
2022-09-28T23:59:28.898Z,100361.50
